Terminal Aerodrome Forecast
Issued by NWS

Home | Current Version | Previous Version | Text Only | Print | Product List | Glossary On
Versions: 1 2 3 4 5 6 7 8 9 10 11 12 13 14 15 16 17 18 19 20
000
FTUS42 KFFC 261720
TAFFTY
TAF
KFTY 261720Z 2618/2718 31013G23KT P6SM BKN025
     FM262300 31010KT P6SM BKN035
     FM270600 30006KT P6SM OVC025
     FM271600 31010KT P6SM OVC040=

USA.gov is the U.S. government's official web portal to all federal, state and local government web resources and services.